Time;durP1;ratioP1;P1;durP2;ratioP2;P2;SDS_P1;SDS_P2;PMS_P1;PMS_P2;Temp;Humidity;BMP_temperature;BMP_pressure;BME280_temperature;BME280_humidity;BME280_pressure;Samples;Min_cycle;Max_cycle;Signal;HPM_P1;HPM_P2
2023/04/05 00:01:11;;;;;;;9.45;6.18;;;1.40;99.90;;;;;;5003139;28;20109;-77
2023/04/05 00:03:36;;;;;;;9.13;5.82;;;1.40;99.90;;;;;;5004986;28;20565;-78
2023/04/05 00:06:04;;;;;;;12.45;5.70;;;1.40;99.90;;;;;;5003247;28;20034;-77
2023/04/05 00:08:30;;;;;;;11.10;5.65;;;1.40;99.90;;;;;;4999907;28;20116;-77
2023/04/05 00:10:55;;;;;;;9.50;6.13;;;1.40;99.90;;;;;;5004047;28;20022;-76
2023/04/05 00:13:21;;;;;;;10.63;6.07;;;1.40;99.90;;;;;;4996868;28;20485;-76
2023/04/05 00:15:48;;;;;;;10.82;6.45;;;1.40;99.90;;;;;;5004768;28;20069;-77
2023/04/05 00:18:20;;;;;;;12.63;6.32;;;1.40;99.90;;;;;;5004588;28;20103;-77
2023/04/05 00:20:50;;;;;;;11.38;6.07;;;1.40;99.90;;;;;;4999972;28;20168;-77
2023/04/05 00:23:16;;;;;;;12.77;6.05;;;1.40;99.90;;;;;;4998576;28;20774;-77
2023/04/05 00:25:43;;;;;;;15.50;6.35;;;1.40;99.90;;;;;;5001132;28;20025;-77
2023/04/05 00:28:09;;;;;;;10.85;5.70;;;1.30;99.90;;;;;;5000668;28;20030;-77
2023/04/05 00:30:35;;;;;;;12.35;5.43;;;1.30;99.90;;;;;;5001984;28;20026;-77
2023/04/05 00:33:01;;;;;;;12.05;6.43;;;1.30;99.90;;;;;;5004464;28;20026;-77
2023/04/05 00:35:27;;;;;;;16.60;7.15;;;1.30;99.90;;;;;;4998475;28;20026;-77
2023/04/05 00:37:54;;;;;;;12.95;6.47;;;1.30;99.90;;;;;;5006453;28;20054;-77
2023/04/05 00:40:19;;;;;;;9.00;5.93;;;1.30;99.90;;;;;;5002408;28;20376;-77
2023/04/05 00:42:45;;;;;;;11.45;6.57;;;1.20;99.90;;;;;;5005248;28;20053;-78
2023/04/05 00:45:12;;;;;;;11.98;7.15;;;1.20;99.90;;;;;;5005706;28;20026;-77
2023/04/05 00:47:40;;;;;;;12.48;7.80;;;1.20;99.90;;;;;;5006241;28;20029;-77
2023/04/05 00:50:07;;;;;;;11.93;8.13;;;1.20;99.90;;;;;;5008094;28;20041;-77
2023/04/05 00:52:34;;;;;;;13.73;7.88;;;1.20;99.90;;;;;;5003184;28;20022;-77
2023/04/05 00:55:00;;;;;;;15.73;8.82;;;1.20;99.90;;;;;;5006372;28;20029;-77
2023/04/05 00:57:29;;;;;;;11.88;7.15;;;1.20;99.90;;;;;;5006836;28;20030;-77
2023/04/05 00:59:58;;;;;;;14.90;8.18;;;1.10;99.90;;;;;;5010881;28;20036;-77
2023/04/05 01:02:32;;;;;;;13.25;8.45;;;1.10;99.90;;;;;;5007015;28;20558;-77
2023/04/05 01:05:20;;;;;;;13.23;6.57;;;1.10;99.90;;;;;;5005234;28;20418;-77
2023/04/05 01:07:55;;;;;;;10.93;6.82;;;1.10;99.90;;;;;;5005323;28;20390;-77
2023/04/05 01:10:26;;;;;;;14.82;7.35;;;1.10;99.90;;;;;;5019909;28;20037;-77
2023/04/05 01:12:51;;;;;;;15.85;8.27;;;1.10;99.90;;;;;;5004308;28;20029;-77
2023/04/05 01:15:17;;;;;;;14.32;7.10;;;1.10;99.90;;;;;;5009671;28;20034;-77
2023/04/05 01:17:45;;;;;;;12.98;7.43;;;1.10;99.90;;;;;;5007154;28;20080;-77
2023/04/05 01:20:11;;;;;;;11.18;6.70;;;1.10;99.90;;;;;;5006054;28;20112;-77
2023/04/05 01:22:59;;;;;;;10.93;6.80;;;1.10;99.90;;;;;;5009508;28;20030;-77
2023/04/05 01:25:51;;;;;;;11.73;7.10;;;1.10;99.90;;;;;;5007447;28;20481;-77
2023/04/05 01:28:45;;;;;;;14.45;6.68;;;1.10;99.90;;;;;;5004621;28;20049;-76
2023/04/05 01:31:25;;;;;;;11.93;6.05;;;1.10;99.90;;;;;;5005702;28;20053;-77
2023/04/05 01:34:19;;;;;;;14.07;6.55;;;1.10;99.90;;;;;;5008493;28;20033;-77
2023/04/05 01:36:49;;;;;;;12.73;7.22;;;1.10;99.90;;;;;;5013785;28;20044;-77
2023/04/05 01:39:17;;;;;;;16.02;7.68;;;1.10;99.90;;;;;;5005644;28;20037;-77
2023/04/05 01:41:43;;;;;;;12.85;6.80;;;1.00;99.90;;;;;;5005529;28;20022;-77
2023/04/05 01:44:09;;;;;;;10.45;6.93;;;1.00;99.90;;;;;;5010046;28;20038;-76
2023/04/05 01:46:35;;;;;;;12.00;7.20;;;1.10;99.90;;;;;;5005897;28;20032;-77
2023/04/05 01:49:00;;;;;;;12.93;6.97;;;1.00;99.90;;;;;;5005468;28;20034;-77
2023/04/05 01:51:26;;;;;;;10.52;6.32;;;1.10;99.90;;;;;;5005955;28;20466;-77
2023/04/05 01:53:52;;;;;;;17.02;8.63;;;1.00;99.90;;;;;;5005728;28;20033;-77
2023/04/05 01:56:18;;;;;;;12.10;6.88;;;1.00;99.90;;;;;;5020641;28;20151;-77
2023/04/05 01:58:43;;;;;;;12.90;7.10;;;1.00;99.90;;;;;;5005591;28;20084;-77
2023/04/05 02:01:09;;;;;;;12.95;6.80;;;1.00;99.90;;;;;;5005130;28;20034;-77
2023/04/05 02:03:35;;;;;;;13.65;7.32;;;1.00;99.90;;;;;;5013359;28;20503;-77
2023/04/05 02:06:01;;;;;;;10.82;6.93;;;1.00;99.90;;;;;;5005515;28;20399;-77
2023/04/05 02:08:26;;;;;;;14.05;7.40;;;0.90;99.90;;;;;;5004366;28;20022;-77
2023/04/05 02:10:52;;;;;;;11.63;6.65;;;0.90;99.90;;;;;;5007076;28;20018;-77
2023/04/05 02:13:20;;;;;;;10.13;6.65;;;0.90;99.90;;;;;;5005249;28;20391;-77
2023/04/05 02:15:49;;;;;;;9.98;5.95;;;0.90;99.90;;;;;;5003130;28;20435;-77
2023/04/05 02:18:15;;;;;;;9.98;6.05;;;0.90;99.90;;;;;;5004528;28;20032;-77
2023/04/05 02:20:41;;;;;;;13.93;6.05;;;0.90;99.90;;;;;;5006808;28;21190;-77
2023/04/05 02:23:07;;;;;;;9.00;5.63;;;0.90;99.90;;;;;;5002353;28;20112;-77
2023/04/05 02:25:33;;;;;;;10.15;6.00;;;0.80;99.90;;;;;;5001345;28;20040;-77
2023/04/05 02:27:58;;;;;;;10.75;5.72;;;0.80;99.90;;;;;;5003104;28;20042;-77
2023/04/05 02:30:27;;;;;;;10.27;5.63;;;0.80;99.90;;;;;;5005378;28;20029;-77
2023/04/05 02:32:54;;;;;;;10.40;6.95;;;0.70;99.90;;;;;;5006339;28;20026;-78
2023/04/05 02:35:20;;;;;;;11.95;6.78;;;0.70;99.90;;;;;;5007371;28;20036;-78
2023/04/05 02:37:46;;;;;;;9.10;5.88;;;0.70;99.90;;;;;;5010033;28;20022;-78
2023/04/05 02:40:13;;;;;;;16.08;5.65;;;0.70;99.90;;;;;;5005300;28;20203;-77
2023/04/05 02:42:39;;;;;;;10.82;5.53;;;0.70;99.90;;;;;;5006264;28;20113;-78
2023/04/05 02:45:07;;;;;;;11.43;5.22;;;0.60;99.90;;;;;;5007697;28;20088;-77
2023/04/05 02:47:33;;;;;;;9.32;5.35;;;0.70;99.90;;;;;;5003512;28;20034;-77
2023/04/05 02:49:59;;;;;;;11.07;5.63;;;0.70;99.90;;;;;;5003594;28;20026;-77
2023/04/05 02:52:24;;;;;;;13.05;5.95;;;0.60;99.90;;;;;;5006996;28;20022;-78
2023/04/05 02:54:50;;;;;;;11.02;6.20;;;0.60;99.90;;;;;;5005904;28;20030;-78
2023/04/05 02:57:16;;;;;;;9.48;5.43;;;0.60;99.90;;;;;;5006052;28;20097;-77
2023/04/05 02:59:42;;;;;;;10.45;6.10;;;0.60;99.90;;;;;;5016510;28;20076;-77
2023/04/05 03:02:09;;;;;;;13.00;6.47;;;0.60;99.90;;;;;;5007676;28;20038;-77
2023/04/05 03:04:35;;;;;;;12.70;7.35;;;0.60;99.90;;;;;;5004460;28;20112;-77
2023/04/05 03:07:02;;;;;;;14.13;7.07;;;0.60;99.90;;;;;;5001382;28;20073;-77
2023/04/05 03:09:32;;;;;;;16.25;7.00;;;0.60;99.90;;;;;;5004677;28;20648;-77
2023/04/05 03:12:02;;;;;;;11.77;6.60;;;0.60;99.90;;;;;;5002697;28;20080;-78
2023/04/05 03:14:32;;;;;;;13.27;6.57;;;0.60;99.90;;;;;;5006942;28;20072;-78
2023/04/05 03:16:57;;;;;;;13.10;7.00;;;0.60;99.90;;;;;;5004423;28;20135;-77
2023/04/05 03:19:24;;;;;;;11.10;6.95;;;0.60;99.90;;;;;;5004486;28;20112;-77
2023/04/05 03:21:51;;;;;;;12.18;6.43;;;0.50;99.90;;;;;;5002820;28;20026;-78
2023/04/05 03:24:16;;;;;;;12.00;6.78;;;0.60;99.90;;;;;;5002611;28;20030;-78
2023/04/05 03:26:44;;;;;;;10.57;6.47;;;0.50;99.90;;;;;;5006431;28;20041;-78
2023/04/05 03:29:10;;;;;;;12.88;7.30;;;0.50;99.90;;;;;;5004126;28;20036;-77
2023/04/05 03:31:36;;;;;;;14.02;7.40;;;0.50;99.90;;;;;;5002825;28;20038;-78
2023/04/05 03:34:01;;;;;;;12.35;7.10;;;0.50;99.90;;;;;;5005319;28;20044;-77
2023/04/05 03:36:41;;;;;;;15.82;7.97;;;0.40;99.90;;;;;;5002462;28;20018;-77
2023/04/05 03:39:09;;;;;;;10.18;7.10;;;0.40;99.90;;;;;;5003900;28;20049;-78
2023/04/05 03:41:35;;;;;;;14.10;7.13;;;0.40;99.90;;;;;;5002688;28;20061;-77
2023/04/05 03:44:00;;;;;;;12.25;6.50;;;0.40;99.90;;;;;;5004902;28;20125;-77
2023/04/05 03:46:26;;;;;;;11.20;6.68;;;0.40;99.90;;;;;;5004001;28;20117;-78
2023/04/05 03:48:52;;;;;;;13.77;6.88;;;0.30;99.90;;;;;;5004163;28;20034;-78
2023/04/05 03:51:18;;;;;;;11.60;7.00;;;0.30;99.90;;;;;;5007035;28;20443;-78
2023/04/05 03:53:44;;;;;;;11.63;6.97;;;0.30;99.90;;;;;;5007673;28;20017;-78
2023/04/05 03:56:11;;;;;;;11.20;5.85;;;0.30;99.90;;;;;;5006450;28;20028;-79
2023/04/05 03:58:37;;;;;;;12.25;6.70;;;0.30;99.90;;;;;;5021338;28;20440;-78
2023/04/05 04:01:02;;;;;;;11.50;6.63;;;0.30;99.90;;;;;;5000853;28;20030;-78
2023/04/05 04:03:29;;;;;;;9.55;6.18;;;0.20;99.90;;;;;;5036384;23;20075;-81
2023/04/05 04:05:56;;;;;;;10.70;6.63;;;0.20;99.90;;;;;;5000363;28;20045;-80
2023/04/05 04:08:22;;;;;;;11.02;6.50;;;0.20;99.90;;;;;;5001402;28;20187;-80
2023/04/05 04:10:48;;;;;;;12.75;6.72;;;0.20;99.90;;;;;;5006764;28;20022;-80
2023/04/05 04:13:14;;;;;;;12.50;7.90;;;0.10;99.90;;;;;;5003492;28;20072;-80
2023/04/05 04:15:40;;;;;;;13.57;6.57;;;0.10;99.90;;;;;;5002470;28;20500;-81
2023/04/05 04:18:05;;;;;;;15.30;7.30;;;0.10;99.90;;;;;;5005280;28;20040;-81
2023/04/05 04:20:31;;;;;;;15.35;7.40;;;0.00;99.90;;;;;;5008419;28;20410;-80
2023/04/05 04:22:57;;;;;;;14.23;7.28;;;0.00;99.90;;;;;;5005493;28;20076;-80
2023/04/05 04:25:25;;;;;;;16.65;6.75;;;0.00;99.90;;;;;;5005262;28;20037;-80
2023/04/05 04:27:51;;;;;;;18.00;7.25;;;0.00;99.90;;;;;;5006165;28;20055;-80
2023/04/05 04:30:21;;;;;;;15.18;8.93;;;0.00;99.90;;;;;;5000785;28;20023;-80
2023/04/05 04:32:50;;;;;;;15.35;8.45;;;0.00;99.90;;;;;;5001639;28;20021;-81
2023/04/05 04:35:19;;;;;;;11.70;7.78;;;-0.10;99.90;;;;;;5005240;28;20022;-79
2023/04/05 04:38:00;;;;;;;18.40;8.63;;;0.00;99.90;;;;;;5005860;28;20029;-80
2023/04/05 04:40:46;;;;;;;23.60;9.32;;;0.00;99.90;;;;;;5003877;28;20033;-80
2023/04/05 04:43:15;;;;;;;15.63;8.70;;;0.00;99.90;;;;;;5008217;28;20507;-80
2023/04/05 04:45:53;;;;;;;21.45;7.38;;;0.00;99.90;;;;;;5003579;28;20034;-80
2023/04/05 04:48:20;;;;;;;16.02;7.75;;;0.00;99.90;;;;;;5004749;28;20107;-79
2023/04/05 04:50:48;;;;;;;14.05;7.32;;;0.00;99.90;;;;;;5004993;28;20097;-82
2023/04/05 04:53:16;;;;;;;16.05;8.15;;;-0.10;99.90;;;;;;5011633;28;20080;-81
2023/04/05 04:55:43;;;;;;;11.90;7.57;;;0.00;99.90;;;;;;5006483;28;20021;-78
2023/04/05 04:58:10;;;;;;;14.90;7.07;;;0.00;99.90;;;;;;5008512;28;20026;-78
2023/04/05 05:00:42;;;;;;;18.20;9.43;;;-0.10;99.90;;;;;;5000083;28;20029;-78
2023/04/05 05:03:12;;;;;;;13.20;6.95;;;-0.10;99.90;;;;;;5009087;28;20508;-79
2023/04/05 05:05:45;;;;;;;14.38;7.55;;;-0.10;99.90;;;;;;5020521;28;20679;-80
2023/04/05 05:08:12;;;;;;;15.25;7.63;;;-0.10;99.90;;;;;;5024646;28;20025;-79
2023/04/05 05:10:38;;;;;;;18.63;8.15;;;-0.10;99.90;;;;;;5024840;28;20038;-78
2023/04/05 05:13:03;;;;;;;14.13;7.47;;;-0.20;99.90;;;;;;5014420;28;20061;-79
2023/04/05 05:15:29;;;;;;;17.05;7.22;;;-0.20;99.90;;;;;;5014406;28;20029;-75
2023/04/05 05:17:55;;;;;;;14.90;7.65;;;-0.20;99.90;;;;;;5018184;28;20040;-76
2023/04/05 05:20:21;;;;;;;15.23;8.23;;;-0.20;99.90;;;;;;5005375;28;20018;-76
2023/04/05 05:22:47;;;;;;;15.43;9.10;;;-0.20;99.90;;;;;;5010992;28;20033;-76
2023/04/05 05:25:13;;;;;;;22.17;9.02;;;-0.20;99.90;;;;;;5012337;28;20044;-76
2023/04/05 05:27:39;;;;;;;18.58;8.45;;;-0.20;99.90;;;;;;5008546;28;20037;-78
2023/04/05 05:30:05;;;;;;;18.30;8.73;;;-0.20;99.90;;;;;;5010887;28;20030;-75
2023/04/05 05:32:30;;;;;;;20.67;9.30;;;-0.20;99.90;;;;;;5009004;28;20482;-77
2023/04/05 05:34:56;;;;;;;17.08;8.43;;;-0.20;99.90;;;;;;5015869;28;20038;-76
2023/04/05 05:37:30;;;;;;;19.90;9.00;;;-0.10;99.90;;;;;;5024915;28;20029;-77
2023/04/05 05:39:56;;;;;;;18.17;8.32;;;-0.10;99.90;;;;;;5020560;28;20025;-77
2023/04/05 05:42:21;;;;;;;17.02;7.90;;;0.00;99.90;;;;;;5011005;28;20038;-76
2023/04/05 05:44:47;;;;;;;18.65;9.43;;;0.10;99.90;;;;;;5008947;28;20045;-76
2023/04/05 05:47:13;;;;;;;17.50;8.45;;;0.10;99.90;;;;;;5012635;28;20088;-76
2023/04/05 05:49:38;;;;;;;13.32;6.93;;;0.10;99.90;;;;;;5007479;28;20490;-79
2023/04/05 05:52:04;;;;;;;13.90;7.72;;;0.20;99.90;;;;;;5008362;28;20446;-76
2023/04/05 05:54:30;;;;;;;13.02;6.88;;;0.30;99.90;;;;;;5021273;28;20415;-76
2023/04/05 05:56:56;;;;;;;15.27;8.40;;;0.30;99.90;;;;;;5006503;28;20045;-78
2023/04/05 05:59:21;;;;;;;10.70;7.10;;;0.40;99.90;;;;;;5003051;28;20482;-79
2023/04/05 06:01:47;;;;;;;12.88;6.95;;;0.40;99.90;;;;;;5007363;28;20029;-78
2023/04/05 06:04:13;;;;;;;18.33;8.32;;;0.40;99.90;;;;;;5005250;28;20034;-77
2023/04/05 06:06:41;;;;;;;15.82;8.27;;;0.50;99.90;;;;;;5006511;28;20041;-78
2023/04/05 06:09:07;;;;;;;14.45;8.45;;;0.60;99.90;;;;;;5005180;28;20021;-78
2023/04/05 06:11:33;;;;;;;20.73;8.73;;;0.60;99.90;;;;;;5016356;28;20032;-79
2023/04/05 06:13:58;;;;;;;21.55;7.65;;;0.70;99.90;;;;;;5001250;28;20485;-76
2023/04/05 06:16:24;;;;;;;22.05;8.63;;;0.80;99.90;;;;;;5004769;28;20025;-78
2023/04/05 06:18:50;;;;;;;14.80;8.05;;;0.80;99.90;;;;;;5004307;28;20044;-79
2023/04/05 06:21:16;;;;;;;15.18;8.38;;;0.90;99.90;;;;;;5018444;28;20044;-80
2023/04/05 06:23:42;;;;;;;15.60;8.43;;;1.00;99.90;;;;;;5016734;28;20038;-79
2023/04/05 06:26:14;;;;;;;13.02;7.50;;;1.00;99.90;;;;;;5006286;28;20045;-78
2023/04/05 06:28:40;;;;;;;16.65;7.78;;;1.10;99.90;;;;;;5001006;28;20397;-80
2023/04/05 06:31:05;;;;;;;12.73;7.05;;;1.20;99.90;;;;;;5000589;28;20502;-81
2023/04/05 06:33:31;;;;;;;14.38;7.40;;;1.20;99.90;;;;;;5003709;28;20048;-80
2023/04/05 06:35:56;;;;;;;14.27;7.38;;;1.20;99.90;;;;;;5001804;28;20049;-79
2023/04/05 06:38:22;;;;;;;13.48;7.43;;;1.30;99.90;;;;;;5005978;28;20026;-79
2023/04/05 06:40:48;;;;;;;13.98;7.05;;;1.30;99.90;;;;;;5003325;28;20049;-80
2023/04/05 06:43:13;;;;;;;16.95;8.20;;;1.40;99.90;;;;;;5005413;28;20065;-81
2023/04/05 06:45:39;;;;;;;13.65;7.45;;;1.40;99.90;;;;;;5006565;28;20383;-81
2023/04/05 06:48:05;;;;;;;13.40;7.20;;;1.40;99.90;;;;;;5005771;28;20038;-81
2023/04/05 06:50:30;;;;;;;11.35;7.03;;;1.50;99.90;;;;;;5004792;28;20455;-79
2023/04/05 06:52:56;;;;;;;13.27;7.22;;;1.50;99.90;;;;;;5006148;28;20427;-79
2023/04/05 06:55:21;;;;;;;12.85;7.00;;;1.50;99.90;;;;;;5007047;28;20036;-79
2023/04/05 06:57:47;;;;;;;12.25;7.70;;;1.50;99.90;;;;;;5028045;28;20032;-79
2023/04/05 07:00:16;;;;;;;16.30;7.82;;;1.50;99.90;;;;;;5034904;28;20037;-79
2023/04/05 07:02:41;;;;;;;12.50;6.95;;;1.60;99.90;;;;;;5027631;28;20034;-80
2023/04/05 07:05:07;;;;;;;13.95;7.05;;;1.60;99.90;;;;;;5031819;28;20497;-79
2023/04/05 07:07:37;;;;;;;19.70;10.48;;;1.70;99.90;;;;;;5013030;28;20080;-79
2023/04/05 07:10:03;;;;;;;20.48;9.38;;;1.80;99.90;;;;;;5028206;28;20031;-79
2023/04/05 07:12:29;;;;;;;14.88;8.90;;;1.90;99.90;;;;;;5027672;28;20021;-80
2023/04/05 07:14:55;;;;;;;15.65;7.07;;;2.00;99.90;;;;;;5026734;28;20032;-79
2023/04/05 07:17:20;;;;;;;16.08;7.90;;;2.10;99.90;;;;;;5025149;28;20033;-80
2023/04/05 07:19:46;;;;;;;15.50;9.07;;;2.20;99.90;;;;;;5026079;28;20048;-81
2023/04/05 07:22:12;;;;;;;19.27;11.38;;;2.30;99.90;;;;;;5011230;28;20022;-81
2023/04/05 07:24:38;;;;;;;19.55;10.68;;;2.30;99.90;;;;;;5006641;28;20030;-79
2023/04/05 07:27:03;;;;;;;17.92;8.95;;;2.40;99.90;;;;;;5011349;28;20112;-79
2023/04/05 07:29:29;;;;;;;13.85;8.32;;;2.50;99.90;;;;;;5015458;28;20030;-79
2023/04/05 07:31:55;;;;;;;17.35;9.05;;;2.60;99.90;;;;;;5010424;28;20026;-79
2023/04/05 07:34:20;;;;;;;20.88;10.23;;;2.70;99.90;;;;;;5012714;28;20426;-79
2023/04/05 07:36:46;;;;;;;15.15;8.18;;;2.80;99.90;;;;;;5009280;28;20506;-79
2023/04/05 07:39:11;;;;;;;18.02;9.30;;;2.80;99.90;;;;;;5010951;28;20029;-79
2023/04/05 07:41:37;;;;;;;15.23;9.15;;;2.80;99.90;;;;;;5008485;28;20447;-79
2023/04/05 07:44:03;;;;;;;25.55;12.18;;;2.80;99.90;;;;;;5009108;28;20034;-79
2023/04/05 07:46:29;;;;;;;24.35;13.35;;;2.90;99.90;;;;;;5005023;28;20037;-79
2023/04/05 07:48:55;;;;;;;15.40;8.82;;;3.00;99.90;;;;;;5005006;28;20026;-79
2023/04/05 07:51:21;;;;;;;31.35;16.40;;;3.00;99.50;;;;;;5008976;28;20030;-79
2023/04/05 07:53:47;;;;;;;24.92;13.07;;;3.00;99.50;;;;;;5002725;28;20029;-79
2023/04/05 07:56:13;;;;;;;14.50;9.02;;;3.10;99.90;;;;;;5006011;28;20038;-80
2023/04/05 07:58:40;;;;;;;20.08;10.77;;;3.20;99.90;;;;;;5004303;28;20049;-80
2023/04/05 08:01:06;;;;;;;18.27;9.55;;;3.20;99.90;;;;;;5007347;28;20049;-80
2023/04/05 08:03:33;;;;;;;16.15;9.70;;;3.30;99.90;;;;;;5002371;28;20479;-80
2023/04/05 08:06:16;;;;;;;28.98;16.50;;;3.30;99.80;;;;;;5004830;28;20121;-79
2023/04/05 08:08:43;;;;;;;33.85;18.10;;;3.40;99.50;;;;;;5006517;28;20061;-79
2023/04/05 08:11:09;;;;;;;14.57;7.93;;;3.50;99.60;;;;;;5001187;28;20029;-81
2023/04/05 08:13:37;;;;;;;10.75;6.65;;;3.60;99.00;;;;;;5002056;28;20022;-80
2023/04/05 08:16:03;;;;;;;13.65;7.07;;;3.70;97.90;;;;;;5005455;28;20022;-83
2023/04/05 08:18:29;;;;;;;13.25;7.10;;;3.70;97.90;;;;;;5004923;28;20416;-79
2023/04/05 08:20:57;;;;;;;16.77;7.30;;;3.70;97.70;;;;;;5004889;28;20125;-82
2023/04/05 08:23:23;;;;;;;11.00;6.32;;;3.80;97.90;;;;;;5006330;28;20081;-82
2023/04/05 08:25:49;;;;;;;16.33;6.22;;;3.80;97.00;;;;;;4998465;28;22256;-81
2023/04/05 08:28:14;;;;;;;12.48;6.38;;;3.90;96.80;;;;;;5003257;28;20430;-81
2023/04/05 08:30:41;;;;;;;15.02;7.40;;;3.90;96.90;;;;;;5002632;28;20030;-82
2023/04/05 08:33:07;;;;;;;17.55;7.55;;;4.00;96.80;;;;;;5001965;28;20037;-81
2023/04/05 08:35:35;;;;;;;12.23;7.05;;;4.10;96.30;;;;;;5003220;28;20034;-82
2023/04/05 08:38:02;;;;;;;13.82;7.53;;;4.10;95.80;;;;;;5004906;28;20386;-82
2023/04/05 08:40:41;;;;;;;18.25;9.35;;;4.10;95.90;;;;;;4988448;28;20037;-81
2023/04/05 08:43:32;;;;;;;11.70;8.05;;;4.10;95.90;;;;;;5002148;28;20447;-82
2023/04/05 08:45:59;;;;;;;11.07;7.25;;;4.10;96.20;;;;;;5007313;28;20425;-82
2023/04/05 08:48:30;;;;;;;11.77;7.20;;;4.10;96.10;;;;;;5002866;28;20102;-82
2023/04/05 08:50:55;;;;;;;15.95;8.10;;;4.10;96.20;;;;;;5004521;28;20548;-81
2023/04/05 08:53:21;;;;;;;15.82;8.07;;;4.10;96.20;;;;;;5006415;28;20026;-82
2023/04/05 08:55:54;;;;;;;14.77;7.82;;;4.30;96.80;;;;;;5002360;28;20076;-82
2023/04/05 08:58:21;;;;;;;14.82;7.90;;;4.30;96.80;;;;;;5007831;28;20090;-82
2023/04/05 09:00:47;;;;;;;11.75;7.03;;;4.40;96.80;;;;;;5006719;28;20160;-82
2023/04/05 09:03:18;;;;;;;11.02;6.43;;;4.40;95.90;;;;;;5004405;28;20077;-82
2023/04/05 09:05:47;;;;;;;14.80;7.72;;;4.40;94.90;;;;;;5007613;28;20071;-83
2023/04/05 09:08:12;;;;;;;11.25;7.00;;;4.50;95.10;;;;;;5008928;28;20060;-83
2023/04/05 09:10:39;;;;;;;10.80;6.03;;;4.60;95.40;;;;;;5006937;28;20490;-82
2023/04/05 09:13:05;;;;;;;11.30;5.97;;;4.60;94.70;;;;;;5007715;28;20390;-82
2023/04/05 09:15:30;;;;;;;13.38;6.22;;;4.60;94.60;;;;;;5008623;28;20029;-81
2023/04/05 09:17:56;;;;;;;9.70;5.35;;;4.60;94.40;;;;;;5009506;28;20429;-82
2023/04/05 09:20:22;;;;;;;11.18;5.70;;;4.70;93.30;;;;;;5011881;28;20022;-81
2023/04/05 09:22:48;;;;;;;9.38;5.07;;;4.70;92.30;;;;;;5012334;28;20070;-82
2023/04/05 09:25:32;;;;;;;8.20;4.93;;;4.70;92.30;;;;;;5012320;28;20472;-82
2023/04/05 09:27:59;;;;;;;13.57;5.88;;;4.90;91.70;;;;;;5022869;28;20642;-82
2023/04/05 09:30:28;;;;;;;10.68;5.43;;;5.00;91.70;;;;;;5010518;28;20111;-82
2023/04/05 09:32:55;;;;;;;10.25;5.45;;;5.00;91.50;;;;;;5008354;28;20029;-82
2023/04/05 09:35:23;;;;;;;8.70;4.90;;;5.00;90.90;;;;;;5007689;28;20513;-83
2023/04/05 09:38:02;;;;;;;9.77;4.97;;;5.10;89.90;;;;;;5007011;28;20438;-83
2023/04/05 09:41:07;;;;;;;10.48;5.45;;;5.20;89.30;;;;;;5007469;28;20033;-83
2023/04/05 09:43:38;;;;;;;6.88;4.40;;;5.20;89.10;;;;;;5013083;28;20042;-83
2023/04/05 09:46:04;;;;;;;9.38;4.68;;;5.20;88.90;;;;;;5008386;28;20498;-83
2023/04/05 09:48:46;;;;;;;10.32;5.78;;;5.30;89.40;;;;;;5007691;28;20026;-83
2023/04/05 09:51:14;;;;;;;19.13;7.97;;;5.40;88.40;;;;;;5009711;28;20029;-82
2023/04/05 09:54:07;;;;;;;13.05;6.60;;;5.50;87.90;;;;;;5001643;28;20030;-83
2023/04/05 09:56:37;;;;;;;11.30;5.53;;;5.50;86.90;;;;;;4998757;28;20100;-83
2023/04/05 09:59:09;;;;;;;8.10;5.28;;;5.50;86.20;;;;;;5003074;28;20038;-83
2023/04/05 10:01:41;;;;;;;9.85;5.30;;;5.60;85.70;;;;;;5009741;28;20075;-83
2023/04/05 10:04:07;;;;;;;8.45;5.00;;;5.60;85.80;;;;;;5018613;23;21382;-78
2023/04/05 10:06:35;;;;;;;9.27;5.10;;;5.70;85.50;;;;;;5003914;28;20106;-79
2023/04/05 10:09:02;;;;;;;15.07;7.18;;;5.70;85.30;;;;;;5007707;28;20041;-79
2023/04/05 10:11:28;;;;;;;14.13;6.53;;;5.80;84.40;;;;;;5009890;28;20105;-79
2023/04/05 10:13:54;;;;;;;9.50;6.00;;;5.80;84.10;;;;;;5008799;28;20238;-80
2023/04/05 10:16:22;;;;;;;12.00;6.20;;;5.90;84.40;;;;;;5004021;28;20075;-79
2023/04/05 10:18:52;;;;;;;11.95;5.35;;;6.10;84.10;;;;;;5004801;28;20099;-79
2023/04/05 10:21:32;;;;;;;10.13;5.45;;;6.10;83.70;;;;;;5004742;28;20061;-79
2023/04/05 10:24:06;;;;;;;7.55;5.30;;;6.30;82.50;;;;;;5006870;28;20030;-79
2023/04/05 10:26:39;;;;;;;8.45;4.97;;;6.30;82.30;;;;;;5004277;28;20069;-79
2023/04/05 10:29:12;;;;;;;9.48;5.72;;;6.30;81.00;;;;;;5008392;28;20088;-80
2023/04/05 10:31:50;;;;;;;;;;;6.40;80.70;;;;;;5006144;28;20500;-79
2023/04/05 10:34:35;;;;;;;10.32;5.40;;;6.40;80.50;;;;;;5002640;28;19910;-79
2023/04/05 10:37:02;;;;;;;8.57;5.93;;;6.40;79.40;;;;;;5001290;28;20041;-79
2023/04/05 10:39:32;;;;;;;8.60;5.53;;;6.40;79.50;;;;;;5018643;28;20088;-79
2023/04/05 10:42:10;;;;;;;10.55;6.13;;;6.40;79.10;;;;;;5003160;28;20037;-79
2023/04/05 10:44:38;;;;;;;8.45;4.93;;;6.50;79.50;;;;;;5005202;28;20513;-79
2023/04/05 10:47:05;;;;;;;6.53;5.13;;;6.50;79.30;;;;;;5019835;28;20028;-79
2023/04/05 10:49:32;;;;;;;12.75;5.68;;;6.60;78.90;;;;;;5021051;28;20100;-79
2023/04/05 10:51:57;;;;;;;9.60;5.35;;;6.70;79.60;;;;;;5001773;28;20116;-80
2023/04/05 10:54:24;;;;;;;9.70;5.43;;;6.70;78.80;;;;;;4999480;28;20152;-79
2023/04/05 10:56:50;;;;;;;8.20;5.32;;;6.90;78.80;;;;;;5019360;28;20533;-79
2023/04/05 10:59:16;;;;;;;7.47;5.63;;;6.90;77.70;;;;;;5005067;28;20061;-80
2023/04/05 11:01:44;;;;;;;12.15;5.72;;;6.90;77.80;;;;;;5004530;28;20096;-79
2023/04/05 11:04:16;;;;;;;8.63;4.95;;;7.00;77.90;;;;;;5004148;28;20027;-80
2023/04/05 11:06:46;;;;;;;9.15;5.25;;;7.00;77.60;;;;;;5003075;28;20025;-79
2023/04/05 11:09:14;;;;;;;9.48;5.50;;;7.10;76.80;;;;;;5001259;28;20065;-79
2023/04/05 11:11:45;;;;;;;10.35;5.57;;;7.10;76.10;;;;;;5006989;28;20018;-79
2023/04/05 11:14:34;;;;;;;7.97;5.25;;;7.10;75.80;;;;;;5002273;28;20032;-79
2023/04/05 11:16:59;;;;;;;8.13;5.03;;;7.10;76.20;;;;;;5013952;28;20026;-80
2023/04/05 11:19:44;;;;;;;8.50;5.47;;;7.10;75.20;;;;;;5006510;28;20088;-80
2023/04/05 11:22:09;;;;;;;;;;;7.10;75.60;;;;;;5005298;28;20026;-79
2023/04/05 11:24:57;;;;;;;9.32;5.68;;;7.10;75.70;;;;;;5004245;28;19972;-79
2023/04/05 11:27:36;;;;;;;8.95;5.22;;;7.20;75.30;;;;;;5006698;28;20053;-80
2023/04/05 11:30:06;;;;;;;7.10;5.35;;;7.20;75.30;;;;;;5003622;28;20017;-80
2023/04/05 11:33:06;;;;;;;11.10;5.10;;;7.30;75.60;;;;;;5006071;28;20444;-79
2023/04/05 11:35:37;;;;;;;13.20;6.18;;;7.30;75.30;;;;;;5010104;28;20608;-79
2023/04/05 11:38:03;;;;;;;16.70;5.78;;;7.30;74.10;;;;;;5001508;28;20451;-78
2023/04/05 11:40:30;;;;;;;7.78;5.10;;;7.30;74.50;;;;;;5010172;28;20037;-79
2023/04/05 11:43:09;;;;;;;8.45;5.38;;;7.40;74.50;;;;;;5011529;28;20026;-79
2023/04/05 11:45:37;;;;;;;14.13;5.75;;;7.40;73.90;;;;;;5005619;28;20073;-78
2023/04/05 11:48:12;;;;;;;7.80;5.10;;;7.40;73.90;;;;;;5008882;28;20052;-79
2023/04/05 11:50:44;;;;;;;8.10;5.40;;;7.40;74.30;;;;;;5007498;28;20048;-79
2023/04/05 11:53:14;;;;;;;9.63;5.43;;;7.50;74.10;;;;;;5006349;28;20028;-80
2023/04/05 11:55:47;;;;;;;6.60;4.80;;;7.50;73.80;;;;;;5007737;28;20033;-79
2023/04/05 11:58:24;;;;;;;7.78;5.25;;;7.40;73.30;;;;;;5008749;28;20482;-80
2023/04/05 12:01:00;;;;;;;8.30;5.63;;;7.40;73.10;;;;;;5002966;28;20090;-79
2023/04/05 12:03:29;;;;;;;9.85;5.55;;;7.40;73.40;;;;;;5005184;28;20029;-79
2023/04/05 12:06:00;;;;;;;8.95;5.15;;;7.40;73.80;;;;;;5006838;28;20088;-80
2023/04/05 12:08:55;;;;;;;7.53;5.43;;;7.50;74.10;;;;;;5003803;28;20050;-79
2023/04/05 12:11:30;;;;;;;7.43;5.50;;;7.50;73.80;;;;;;5005046;28;20052;-79
2023/04/05 12:14:00;;;;;;;12.05;5.30;;;7.50;72.90;;;;;;5013112;28;20025;-79
2023/04/05 12:16:27;;;;;;;7.38;5.38;;;7.50;73.50;;;;;;5002419;28;20022;-79
2023/04/05 12:18:53;;;;;;;7.90;5.25;;;7.60;73.30;;;;;;5013305;28;20026;-80
2023/04/05 12:21:20;;;;;;;8.50;5.20;;;7.60;73.10;;;;;;5002530;28;20444;-79
2023/04/05 12:23:46;;;;;;;8.85;5.68;;;7.50;72.60;;;;;;5003337;28;20033;-79
2023/04/05 12:26:13;;;;;;;11.77;6.13;;;7.50;73.20;;;;;;5007434;28;20113;-79
2023/04/05 12:28:59;;;;;;;9.10;5.90;;;7.60;72.90;;;;;;5004519;28;20029;-79
2023/04/05 12:31:45;;;;;;;9.02;5.47;;;7.70;73.10;;;;;;4996593;28;20026;-79
2023/04/05 12:34:12;;;;;;;7.32;5.05;;;7.80;72.90;;;;;;5003626;28;20049;-79
2023/04/05 12:36:38;;;;;;;9.70;5.10;;;7.80;71.70;;;;;;5005811;28;20026;-79
2023/04/05 12:39:08;;;;;;;7.50;5.30;;;7.90;71.40;;;;;;4994119;28;20018;-80
2023/04/05 12:41:35;;;;;;;11.80;5.78;;;7.90;71.00;;;;;;5001918;28;20041;-79
2023/04/05 12:44:29;;;;;;;10.40;5.65;;;7.90;71.60;;;;;;5022135;28;20045;-79
2023/04/05 12:47:01;;;;;;;10.80;4.97;;;7.80;71.30;;;;;;5010427;28;20038;-79
2023/04/05 12:49:27;;;;;;;8.15;6.13;;;7.80;71.30;;;;;;5004738;28;20033;-78
2023/04/05 12:51:53;;;;;;;9.50;6.20;;;7.80;70.90;;;;;;5007095;28;20372;-78
2023/04/05 12:54:22;;;;;;;8.90;5.78;;;7.80;71.60;;;;;;5005499;28;20075;-78
2023/04/05 12:56:54;;;;;;;12.52;6.55;;;7.80;71.50;;;;;;5001317;28;20049;-78